Time;durP1;ratioP1;P1;durP2;ratioP2;P2;SDS_P1;SDS_P2;PMS_P1;PMS_P2;Temp;Humidity;BMP_temperature;BMP_pressure;BME280_temperature;BME280_humidity;BME280_pressure;Samples;Min_cycle;Max_cycle;Signal;HPM_P1;HPM_P2
2022/03/28 00:01:33;;;;;;;9.40;5.47;;;;;;;10.47;44.35;100161.78;5069448;28;20296;-67
2022/03/28 00:04:07;;;;;;;7.97;5.82;;;;;;;10.32;44.69;100155.34;5068996;28;20048;-67
2022/03/28 00:06:39;;;;;;;6.85;5.18;;;;;;;9.80;44.50;100059.47;5086866;28;20326;-67
2022/03/28 00:09:12;;;;;;;8.93;5.63;;;;;;;10.34;44.44;100156.13;5086707;28;20056;-67
2022/03/28 00:11:44;;;;;;;8.90;5.90;;;;;;;10.34;44.75;100144.66;5086625;28;20296;-66
2022/03/28 00:14:16;;;;;;;8.63;5.82;;;;;;;9.98;44.48;100089.63;5069107;28;20078;-66
2022/03/28 00:16:49;;;;;;;9.32;6.00;;;;;;;10.28;44.89;100146.66;5086116;28;20037;-67
2022/03/28 00:19:22;;;;;;;7.10;5.45;;;;;;;10.19;44.92;100147.03;5086508;28;20036;-67
2022/03/28 00:21:56;;;;;;;8.07;5.05;;;;;;;10.27;44.70;100139.63;5086074;28;20060;-67
2022/03/28 00:24:28;;;;;;;8.70;5.53;;;;;;;10.23;44.66;100140.69;5069093;28;20032;-67
2022/03/28 00:27:01;;;;;;;8.43;5.65;;;;;;;10.16;45.31;100143.63;5068733;28;20048;-67
2022/03/28 00:29:33;;;;;;;7.30;5.57;;;;;;;10.20;44.77;100139.94;5086222;28;20041;-67
2022/03/28 00:32:06;;;;;;;9.50;5.88;;;;;;;10.21;44.87;100134.56;5068890;28;20292;-67
2022/03/28 00:34:40;;;;;;;7.75;5.60;;;;;;;10.16;44.99;100128.59;5068558;28;20048;-67
2022/03/28 00:37:16;;;;;;;11.65;6.47;;;;;;;9.21;45.01;99977.19;5086001;28;20040;-67
2022/03/28 00:39:48;;;;;;;6.88;5.20;;;;;;;9.89;44.57;100072.34;5086082;28;20041;-68
2022/03/28 00:42:20;;;;;;;8.88;5.97;;;;;;;10.18;44.78;100129.41;5085974;28;20058;-67
2022/03/28 00:44:53;;;;;;;8.73;6.30;;;;;;;10.08;45.25;100129.84;5068473;28;20040;-67
2022/03/28 00:47:25;;;;;;;9.43;6.68;;;;;;;9.95;45.39;100127.69;5086040;28;20044;-68
2022/03/28 00:49:56;;;;;;;9.20;5.80;;;;;;;9.58;45.59;100079.78;5085990;28;20041;-67
2022/03/28 00:52:26;;;;;;;6.90;5.53;;;;;;;9.78;45.69;100126.66;5068316;28;20040;-67
2022/03/28 00:54:58;;;;;;;7.57;5.72;;;;;;;9.63;46.19;100123.69;5068674;28;20037;-68
2022/03/28 00:57:25;;;;;;;7.05;5.40;;;;;;;9.59;46.28;100127.38;5085194;28;20123;-68
2022/03/28 00:59:56;;;;;;;7.30;4.85;;;;;;;9.61;45.98;100122.03;5068282;28;20037;-67
2022/03/28 01:02:27;;;;;;;14.73;6.15;;;;;;;9.59;46.09;100121.22;5085909;28;20179;-68
2022/03/28 01:04:58;;;;;;;7.47;4.90;;;;;;;9.54;46.08;100123.19;5085422;28;20043;-68
2022/03/28 01:07:28;;;;;;;9.07;6.55;;;;;;;9.59;45.95;100110.63;5085450;28;20111;-68
2022/03/28 01:09:59;;;;;;;7.88;5.72;;;;;;;9.54;46.00;100112.59;5085793;28;20041;-66
2022/03/28 01:12:27;;;;;;;8.95;5.15;;;;;;;9.54;45.84;100107.31;5085441;28;20057;-66
2022/03/28 01:14:57;;;;;;;9.88;5.28;;;;;;;9.50;46.18;100108.34;5068489;28;20044;-67
2022/03/28 01:20:18;;;;;;;9.32;6.10;;;;;;;9.12;46.21;100060.34;5085423;28;20040;-68
2022/03/28 01:22:51;;;;;;;10.40;5.47;;;;;;;9.48;45.74;100124.28;5085902;28;20044;-68
2022/03/28 01:25:25;;;;;;;11.73;5.50;;;;;;;9.51;45.82;100102.13;5068005;28;20445;-68
2022/03/28 01:27:58;;;;;;;7.28;4.70;;;;;;;9.47;45.81;100095.22;5085456;28;20094;-67
2022/03/28 01:30:32;;;;;;;9.35;6.32;;;;;;;9.11;46.05;100052.47;5085573;28;20040;-68
2022/03/28 01:33:05;;;;;;;7.57;5.40;;;;;;;9.14;45.92;100040.00;5085740;28;20044;-67
2022/03/28 01:35:40;;;;;;;9.00;5.47;;;;;;;9.41;45.87;100090.19;5085652;28;20036;-67
2022/03/28 01:38:15;;;;;;;8.00;4.90;;;;;;;9.42;46.34;100083.97;5085611;28;20045;-67
2022/03/28 01:40:50;;;;;;;6.95;4.88;;;;;;;9.47;45.88;100085.50;5069532;28;20040;-68
2022/03/28 01:43:23;;;;;;;8.10;4.65;;;;;;;9.46;45.79;100082.94;5085661;28;20048;-67
2022/03/28 01:45:55;;;;;;;6.32;4.97;;;;;;;9.52;45.47;100075.59;5085400;28;20044;-67
2022/03/28 01:48:29;;;;;;;10.13;5.07;;;;;;;9.39;45.76;100071.69;5085141;28;20216;-67
2022/03/28 01:51:01;;;;;;;8.55;5.65;;;;;;;9.42;45.72;100076.03;5085087;28;20040;-68
2022/03/28 01:53:35;;;;;;;6.78;5.50;;;;;;;9.43;45.91;100070.69;5085300;28;20040;-67
2022/03/28 01:56:07;;;;;;;6.28;4.45;;;;;;;9.44;45.92;100079.47;5084940;28;20037;-67
2022/03/28 01:58:39;;;;;;;7.80;5.18;;;;;;;9.36;46.09;100077.09;5085010;28;20082;-67
2022/03/28 02:01:11;;;;;;;9.70;6.10;;;;;;;9.33;45.84;100074.56;5084935;28;20045;-67
2022/03/28 02:03:44;;;;;;;8.98;5.20;;;;;;;9.21;46.50;100073.25;5067289;28;20056;-67
2022/03/28 02:06:16;;;;;;;9.13;4.80;;;;;;;9.26;46.13;100073.06;5067648;28;20097;-67
2022/03/28 02:08:50;;;;;;;6.97;5.55;;;;;;;8.94;46.65;100013.47;5067636;28;20055;-67
2022/03/28 02:11:22;;;;;;;7.03;5.30;;;;;;;9.20;46.23;100071.53;5084896;28;20044;-67
2022/03/28 02:13:54;;;;;;;6.75;4.80;;;;;;;8.88;46.71;100017.19;5067658;28;20094;-67
2022/03/28 02:16:27;;;;;;;7.93;5.25;;;;;;;9.16;46.61;100064.59;5085358;28;20079;-67
2022/03/28 02:18:59;;;;;;;7.38;4.97;;;;;;;9.10;46.52;100064.84;5054471;28;20111;-67
2022/03/28 02:21:31;;;;;;;9.80;4.32;;;;;;;9.16;46.27;100061.97;5088657;28;20046;-67
2022/03/28 02:24:05;;;;;;;9.00;5.30;;;;;;;9.16;46.90;100054.03;5088646;28;20227;-67
2022/03/28 02:26:39;;;;;;;7.07;5.38;;;;;;;9.17;46.46;100053.09;5071152;28;20094;-67
2022/03/28 02:29:11;;;;;;;9.05;5.72;;;;;;;8.85;46.54;100009.38;5088534;28;20041;-67
2022/03/28 02:31:43;;;;;;;9.27;4.78;;;;;;;8.74;46.78;100008.06;5088492;28;20041;-67
2022/03/28 02:34:15;;;;;;;9.27;4.80;;;;;;;9.02;46.60;100047.53;5088158;28;20049;-67
2022/03/28 02:36:47;;;;;;;6.18;3.85;;;;;;;8.80;46.48;99998.13;5088026;28;20052;-68
2022/03/28 02:39:21;;;;;;;7.63;5.47;;;;;;;9.15;46.37;100041.72;5071537;28;20244;-68
2022/03/28 02:41:53;;;;;;;7.13;5.10;;;;;;;8.82;46.26;100001.56;5088061;28;20058;-68
2022/03/28 02:44:26;;;;;;;9.20;5.32;;;;;;;8.84;46.29;99993.56;5088054;28;20082;-68
2022/03/28 02:46:58;;;;;;;7.50;5.22;;;;;;;9.08;46.35;100048.16;5088212;28;20044;-68
2022/03/28 02:49:30;;;;;;;7.75;5.15;;;;;;;9.00;46.35;100050.25;5087887;28;20108;-68
2022/03/28 02:52:02;;;;;;;8.18;5.30;;;;;;;8.69;46.43;100000.31;5087879;28;20231;-68
2022/03/28 02:54:36;;;;;;;7.93;4.95;;;;;;;8.92;46.30;100050.53;5070586;28;20228;-68
2022/03/28 02:57:08;;;;;;;7.97;4.90;;;;;;;8.91;46.34;100050.59;5088002;28;20094;-68
2022/03/28 02:59:40;;;;;;;8.93;5.90;;;;;;;8.66;46.20;100006.56;5087957;28;20044;-68
2022/03/28 03:02:13;;;;;;;8.70;5.57;;;;;;;8.58;46.33;100024.47;5087718;28;20201;-67
2022/03/28 03:04:45;;;;;;;10.48;6.28;;;;;;;8.84;46.64;100044.66;5087547;28;20049;-67
2022/03/28 03:07:18;;;;;;;9.95;4.93;;;;;;;8.49;46.25;99998.41;5087650;28;20040;-67
2022/03/28 03:09:52;;;;;;;8.10;5.15;;;;;;;8.80;45.94;100042.19;5087538;28;20292;-67
2022/03/28 03:12:24;;;;;;;5.75;5.07;;;;;;;8.82;45.35;100041.22;5087717;28;20090;-67
2022/03/28 03:14:56;;;;;;;8.13;5.05;;;;;;;8.57;44.95;100017.47;5087808;28;20040;-67
2022/03/28 03:17:27;;;;;;;8.65;4.95;;;;;;;8.79;44.29;100048.41;5087299;28;20044;-68
2022/03/28 03:19:57;;;;;;;5.80;4.10;;;;;;;7.31;43.78;99835.41;5087295;28;20044;-68
2022/03/28 03:22:27;;;;;;;7.25;4.57;;;;;;;8.49;43.76;99990.47;5087517;28;20074;-68
2022/03/28 03:24:59;;;;;;;8.93;4.28;;;;;;;8.57;43.50;100001.63;5087409;28;20040;-68
2022/03/28 03:27:27;;;;;;;10.50;4.75;;;;;;;8.85;43.29;100049.03;5087130;28;20108;-68
2022/03/28 03:29:57;;;;;;;7.70;4.55;;;;;;;8.82;43.32;100048.28;5087120;28;20199;-68
2022/03/28 03:32:27;;;;;;;6.22;3.95;;;;;;;8.80;43.61;100044.84;5087293;28;20342;-68
2022/03/28 03:34:58;;;;;;;6.72;4.03;;;;;;;8.72;43.56;100041.59;5087076;28;20230;-68
2022/03/28 03:37:29;;;;;;;7.18;4.47;;;;;;;8.50;43.70;100005.41;5053410;28;20186;-68
2022/03/28 03:39:59;;;;;;;6.15;4.03;;;;;;;8.76;43.94;100041.44;5069939;28;20025;-68
2022/03/28 03:42:28;;;;;;;6.82;4.57;;;;;;;8.76;43.78;100040.56;5069527;28;20260;-68
2022/03/28 03:44:58;;;;;;;5.80;4.13;;;;;;;7.96;44.05;99958.06;5087076;28;20040;-68
2022/03/28 03:47:28;;;;;;;5.68;4.22;;;;;;;8.58;43.78;100035.03;5086862;28;20048;-68
2022/03/28 03:49:58;;;;;;;7.65;4.03;;;;;;;8.58;43.82;100039.47;5086784;28;20104;-68
2022/03/28 03:52:28;;;;;;;6.35;3.70;;;;;;;8.19;43.34;99973.94;5069856;28;20040;-68
2022/03/28 03:55:00;;;;;;;6.15;3.30;;;;;;;7.76;43.44;99908.63;5086632;28;20041;-68
2022/03/28 03:57:29;;;;;;;6.25;4.05;;;;;;;8.58;43.21;100045.63;5086833;28;20040;-67
2022/03/28 03:59:59;;;;;;;5.63;3.95;;;;;;;8.62;43.07;100041.09;5086847;28;20060;-67
2022/03/28 04:02:29;;;;;;;5.18;3.78;;;;;;;7.83;43.06;99915.41;5086550;28;20051;-68
2022/03/28 04:04:59;;;;;;;7.28;3.65;;;;;;;8.49;43.24;100043.31;5086720;28;20052;-68
2022/03/28 04:07:29;;;;;;;8.45;3.95;;;;;;;8.46;43.20;100043.41;5086354;28;20044;-68
2022/03/28 04:10:02;;;;;;;6.43;4.70;;;;;;;8.51;43.25;100049.41;5086400;28;20040;-68
2022/03/28 04:12:29;;;;;;;6.45;4.30;;;;;;;8.26;43.37;99991.31;5086482;28;20056;-68
2022/03/28 04:15:01;;;;;;;12.18;4.63;;;;;;;8.59;43.31;100038.56;5052404;28;20116;-68
2022/03/28 04:17:30;;;;;;;7.35;4.18;;;;;;;8.65;43.18;100041.84;5068793;28;20036;-67
2022/03/28 04:20:00;;;;;;;6.45;4.65;;;;;;;8.63;43.37;100043.66;5068902;28;20041;-67
2022/03/28 04:22:30;;;;;;;6.97;4.22;;;;;;;8.59;43.25;100035.91;5069548;28;20200;-67
2022/03/28 04:25:03;;;;;;;6.85;4.25;;;;;;;8.33;43.43;99991.94;5086022;28;20040;-67
2022/03/28 04:27:30;;;;;;;5.45;3.80;;;;;;;8.16;43.52;99979.34;5085809;28;20056;-67
2022/03/28 04:30:00;;;;;;;7.57;4.07;;;;;;;8.16;43.72;99987.25;5085916;28;20086;-68
2022/03/28 04:32:30;;;;;;;7.00;4.30;;;;;;;8.42;43.52;100023.31;5085867;28;20049;-67
2022/03/28 04:35:01;;;;;;;10.30;4.88;;;;;;;8.45;43.44;100023.19;5085734;28;20040;-67
2022/03/28 04:37:33;;;;;;;21.17;5.85;;;;;;;8.44;42.67;100025.91;5068169;28;20036;-67
2022/03/28 04:40:05;;;;;;;9.13;5.32;;;;;;;8.40;43.18;100029.56;5085309;28;20063;-67
2022/03/28 04:42:37;;;;;;;8.00;4.88;;;;;;;8.41;43.11;100024.22;5085816;28;20071;-67
2022/03/28 04:45:08;;;;;;;9.43;4.55;;;;;;;8.30;43.11;100032.53;5051633;28;20044;-66
2022/03/28 04:47:37;;;;;;;10.35;5.68;;;;;;;6.96;43.07;99798.81;5085631;28;20037;-66
2022/03/28 04:50:08;;;;;;;10.30;5.88;;;;;;;8.33;43.07;100018.34;5085911;28;20334;-67
2022/03/28 04:52:38;;;;;;;8.73;5.50;;;;;;;8.32;42.96;100013.97;5068259;28;20029;-67
2022/03/28 04:55:09;;;;;;;10.20;5.75;;;;;;;7.77;42.77;99920.03;5068584;28;20040;-67
2022/03/28 04:57:37;;;;;;;8.50;5.25;;;;;;;7.01;42.44;99795.13;5085194;28;20063;-67
2022/03/28 05:00:10;;;;;;;8.85;5.35;;;;;;;8.25;42.94;100012.47;5085797;28;20047;-67
2022/03/28 05:02:39;;;;;;;6.55;5.20;;;;;;;7.67;42.79;99914.22;5085397;28;20193;-68
2022/03/28 05:05:08;;;;;;;7.35;4.63;;;;;;;8.34;42.86;100006.88;5085599;28;20300;-68
2022/03/28 05:07:38;;;;;;;9.15;5.88;;;;;;;8.03;42.82;99957.78;5085476;28;20041;-67
2022/03/28 05:10:17;;;;;;;6.35;4.93;;;;;;;8.33;42.70;100006.00;5085584;28;20320;-67
2022/03/28 05:12:50;;;;;;;9.75;5.38;;;;;;;7.93;42.45;99945.84;5085515;28;20071;-67
2022/03/28 05:15:23;;;;;;;9.35;6.13;;;;;;;5.71;42.81;99568.63;5051300;28;20044;-68
2022/03/28 05:17:55;;;;;;;7.38;4.50;;;;;;;8.37;42.59;100011.19;5085506;28;20309;-68
2022/03/28 05:20:29;;;;;;;7.68;5.18;;;;;;;7.68;42.94;99908.00;5068678;28;20047;-68
2022/03/28 05:23:02;;;;;;;10.43;5.07;;;;;;;7.90;43.40;99956.50;5086129;28;20040;-68
2022/03/28 05:25:36;;;;;;;8.80;5.90;;;;;;;8.22;43.53;100009.94;5085914;28;20173;-68
2022/03/28 05:28:09;;;;;;;10.43;5.60;;;;;;;8.25;43.71;100015.97;5085280;28;20045;-68
2022/03/28 05:30:41;;;;;;;9.00;5.80;;;;;;;8.27;45.00;100015.94;5085190;28;20383;-68
2022/03/28 05:33:13;;;;;;;12.05;6.55;;;;;;;8.39;44.55;100009.34;5085128;28;20040;-68
2022/03/28 05:35:46;;;;;;;14.27;6.05;;;;;;;8.40;45.98;100024.28;5085249;28;20033;-68
2022/03/28 05:38:19;;;;;;;12.18;7.05;;;;;;;7.98;45.44;99962.38;5084969;28;20185;-68
2022/03/28 05:40:55;;;;;;;8.90;6.20;;;;;;;7.97;46.20;99979.13;5067720;28;20226;-68
2022/03/28 05:43:27;;;;;;;12.40;5.78;;;;;;;8.23;45.31;100030.16;5085081;28;20040;-67
2022/03/28 05:45:59;;;;;;;11.73;6.82;;;;;;;8.28;45.33;100034.34;5085057;28;20296;-68
2022/03/28 05:48:32;;;;;;;10.07;6.40;;;;;;;8.56;45.24;100026.31;5067668;28;20044;-68
2022/03/28 05:51:04;;;;;;;10.30;6.82;;;;;;;8.78;44.60;100025.53;5085042;28;20313;-68
2022/03/28 05:53:36;;;;;;;13.13;6.22;;;;;;;8.84;44.06;99980.38;5088872;28;20040;-68
2022/03/28 05:56:10;;;;;;;14.82;6.80;;;;;;;9.17;44.13;100010.78;5088721;28;20044;-68
2022/03/28 05:58:42;;;;;;;12.98;5.80;;;;;;;9.77;43.11;100009.31;5088778;28;20044;-69
2022/03/28 06:01:14;;;;;;;14.63;7.35;;;;;;;12.27;39.02;100004.78;5088755;28;20044;-68
2022/03/28 06:03:46;;;;;;;18.40;7.88;;;;;;;14.90;33.83;99983.47;5088523;28;20122;-68
2022/03/28 06:06:19;;;;;;;14.25;6.68;;;;;;;16.49;31.61;99980.00;5071451;28;20047;-67
2022/03/28 06:08:51;;;;;;;11.65;6.72;;;;;;;17.52;30.23;99960.97;5088850;28;20052;-66
2022/03/28 06:11:24;;;;;;;10.55;4.95;;;;;;;18.30;28.82;99964.94;5071481;28;20041;-67
2022/03/28 06:13:57;;;;;;;10.38;6.40;;;;;;;18.67;28.76;99962.97;5088403;28;20044;-66
2022/03/28 06:16:29;;;;;;;19.25;7.20;;;;;;;18.37;29.26;99968.88;5088468;28;20040;-66
2022/03/28 06:19:01;;;;;;;13.35;6.40;;;;;;;17.47;30.48;99965.81;5088564;28;20048;-68
2022/03/28 06:21:33;;;;;;;12.85;7.25;;;;;;;16.96;31.32;99968.63;5071080;28;20040;-67
2022/03/28 06:24:07;;;;;;;11.10;7.30;;;;;;;17.12;31.44;99963.03;5088121;28;20044;-67
2022/03/28 06:26:41;;;;;;;12.88;7.10;;;;;;;17.64;30.64;99924.41;5088395;28;20040;-67
2022/03/28 06:29:13;;;;;;;8.70;6.07;;;;;;;18.30;29.49;99914.81;5088248;28;20178;-67
2022/03/28 06:31:46;;;;;;;8.95;5.80;;;;;;;19.53;28.39;99953.22;5088046;28;20123;-68
2022/03/28 06:34:18;;;;;;;10.75;6.68;;;;;;;20.17;27.63;99955.06;5088068;28;20037;-69
2022/03/28 06:36:50;;;;;;;10.50;6.53;;;;;;;20.14;27.18;99950.78;5070919;28;20040;-67
2022/03/28 06:39:22;;;;;;;13.18;6.47;;;;;;;19.32;28.46;99946.06;5054872;28;20048;-67
2022/03/28 06:41:56;;;;;;;10.65;6.35;;;;;;;17.94;29.49;99934.63;5088036;28;20110;-67
2022/03/28 06:44:28;;;;;;;8.53;6.10;;;;;;;16.92;31.86;99956.44;5088004;28;20062;-67
2022/03/28 06:47:00;;;;;;;9.55;6.07;;;;;;;15.88;33.54;99962.81;5087928;28;20343;-68
2022/03/28 06:49:34;;;;;;;12.18;7.30;;;;;;;14.95;34.88;99971.56;5087969;28;20041;-67
2022/03/28 06:52:07;;;;;;;9.35;5.88;;;;;;;14.43;36.11;99972.06;5087808;28;20090;-68
2022/03/28 06:54:39;;;;;;;10.13;6.63;;;;;;;14.08;37.08;99971.53;5088042;28;20067;-68
2022/03/28 06:57:13;;;;;;;8.07;5.38;;;;;;;13.82;36.39;99974.03;5070182;28;20048;-69
2022/03/28 06:59:46;;;;;;;9.52;5.57;;;;;;;13.29;37.13;99887.44;5087577;28;20045;-69
2022/03/28 07:02:18;;;;;;;9.82;5.82;;;;;;;13.85;37.07;99972.03;5087013;28;20060;-70
2022/03/28 07:04:50;;;;;;;10.20;6.43;;;;;;;13.88;36.68;99966.53;5087444;28;20228;-68
2022/03/28 07:07:22;;;;;;;8.48;6.60;;;;;;;13.97;35.89;99974.00;5087381;28;20231;-69
2022/03/28 07:09:54;;;;;;;10.05;6.80;;;;;;;14.01;35.78;99969.34;5054160;28;20162;-69
2022/03/28 07:12:28;;;;;;;8.90;5.68;;;;;;;14.01;34.71;99967.53;5087512;28;20324;-69
2022/03/28 07:15:02;;;;;;;14.10;5.68;;;;;;;14.02;34.32;99965.72;5087414;28;20143;-69
2022/03/28 07:17:46;;;;;;;13.52;5.97;;;;;;;13.52;32.80;99896.78;5069796;28;20044;-69
2022/03/28 07:20:18;;;;;;;11.18;5.63;;;;;;;14.07;35.14;99960.97;5087226;28;20060;-69
2022/03/28 07:22:47;;;;;;;13.13;6.90;;;;;;;13.98;34.83;99929.53;5087239;28;20207;-67
2022/03/28 07:25:18;;;;;;;11.18;6.68;;;;;;;14.23;34.83;99967.09;5087156;28;20032;-68
2022/03/28 07:27:50;;;;;;;9.18;6.93;;;;;;;14.21;34.68;99969.00;5087361;28;20051;-68
2022/03/28 07:30:19;;;;;;;8.73;7.40;;;;;;;14.31;34.28;99963.97;5087279;28;20284;-69
2022/03/28 07:32:50;;;;;;;8.68;7.45;;;;;;;14.44;34.03;99949.78;5087210;28;20099;-68
2022/03/28 07:35:19;;;;;;;8.70;7.55;;;;;;;14.49;34.22;99951.31;5087015;28;20119;-68
2022/03/28 07:37:50;;;;;;;11.55;7.45;;;;;;;14.53;34.15;99955.50;5086935;28;20075;-68
2022/03/28 07:40:19;;;;;;;9.70;7.18;;;;;;;14.32;33.70;99953.22;5087071;28;20111;-68
2022/03/28 07:42:51;;;;;;;9.05;7.78;;;;;;;14.40;34.29;99950.94;5086706;28;20040;-68
2022/03/28 07:45:19;;;;;;;12.45;7.07;;;;;;;14.21;34.96;99915.69;5086585;28;20098;-68
2022/03/28 07:47:50;;;;;;;13.98;8.10;;;;;;;14.77;34.35;99956.72;5069448;28;20284;-68
2022/03/28 07:50:20;;;;;;;13.70;8.30;;;;;;;14.95;34.36;99955.53;5086605;28;20050;-68
2022/03/28 07:52:50;;;;;;;13.18;9.32;;;;;;;14.92;34.18;99938.88;5086542;28;20041;-68
2022/03/28 07:55:20;;;;;;;11.20;8.77;;;;;;;15.03;34.33;99950.56;5086586;28;20293;-68
2022/03/28 07:57:52;;;;;;;17.00;10.07;;;;;;;14.98;34.27;99938.47;5086668;28;20082;-68
2022/03/28 08:00:21;;;;;;;11.20;8.30;;;;;;;14.05;34.44;99830.47;5086391;28;20052;-69
2022/03/28 08:02:51;;;;;;;13.88;8.77;;;;;;;14.93;34.52;99940.59;5086351;28;20053;-69
2022/03/28 08:05:21;;;;;;;12.43;9.38;;;;;;;15.06;34.15;99931.69;5086434;28;20090;-69
2022/03/28 08:07:53;;;;;;;13.60;9.98;;;;;;;14.72;34.13;99863.63;5086499;28;20111;-69
2022/03/28 08:10:24;;;;;;;13.50;9.40;;;;;;;15.22;33.96;99893.31;5085797;28;20044;-67
2022/03/28 08:12:53;;;;;;;10.13;8.25;;;;;;;15.42;33.52;99932.91;5086165;28;20103;-67
2022/03/28 08:15:22;;;;;;;12.02;9.25;;;;;;;15.60;33.51;99938.84;5085461;28;20063;-68
2022/03/28 08:17:52;;;;;;;14.10;9.88;;;;;;;15.54;33.26;99928.56;5086482;28;20281;-68
2022/03/28 08:20:23;;;;;;;12.45;9.15;;;;;;;15.38;33.93;99926.06;5086211;28;20107;-68
2022/03/28 08:22:54;;;;;;;11.98;9.85;;;;;;;15.24;33.74;99892.25;5086104;28;20040;-69
2022/03/28 08:25:24;;;;;;;13.52;8.85;;;;;;;15.57;33.61;99917.69;5086283;28;20067;-68
2022/03/28 08:27:55;;;;;;;15.70;10.02;;;;;;;15.59;33.59;99913.09;5086200;28;20288;-68
2022/03/28 08:30:24;;;;;;;16.40;10.55;;;;;;;15.85;33.54;99903.34;5085910;28;20216;-67
2022/03/28 08:32:55;;;;;;;15.90;10.43;;;;;;;16.02;32.60;99911.06;5085926;28;20047;-68
2022/03/28 08:35:27;;;;;;;15.57;10.20;;;;;;;16.27;32.77;99900.38;5085820;28;20041;-68
2022/03/28 08:37:54;;;;;;;16.33;10.48;;;;;;;16.21;32.82;99900.81;5068267;28;20254;-68
2022/03/28 08:40:26;;;;;;;18.13;11.18;;;;;;;16.24;33.32;99892.56;5068210;28;20040;-68
2022/03/28 08:42:57;;;;;;;12.20;10.05;;;;;;;15.96;32.85;99850.88;5085971;28;20036;-68
2022/03/28 08:45:27;;;;;;;13.55;10.07;;;;;;;16.42;32.62;99890.41;5085687;28;20316;-68
2022/03/28 08:47:58;;;;;;;17.98;9.75;;;;;;;16.76;31.96;99877.34;5068472;28;20055;-68
2022/03/28 08:50:26;;;;;;;16.35;10.38;;;;;;;16.74;32.06;99836.44;5086116;28;20040;-68
2022/03/28 08:52:56;;;;;;;13.82;8.90;;;;;;;16.90;32.06;99871.84;5085837;28;20289;-68
2022/03/28 08:55:26;;;;;;;14.27;9.30;;;;;;;16.97;32.21;99868.59;5085904;28;20060;-68
2022/03/28 08:57:58;;;;;;;10.32;7.82;;;;;;;16.73;31.92;99822.22;5085769;28;20035;-68
2022/03/28 09:00:27;;;;;;;11.55;9.00;;;;;;;16.76;32.04;99824.66;5085705;28;20040;-68
2022/03/28 09:02:58;;;;;;;22.05;9.13;;;;;;;16.73;32.21;99779.38;5085206;28;20215;-68
2022/03/28 09:05:33;;;;;;;15.48;7.60;;;;;;;17.25;31.66;99858.53;5085745;28;20064;-68
2022/03/28 09:08:05;;;;;;;17.27;10.38;;;;;;;17.09;31.69;99855.28;5085538;28;20040;-69
2022/03/28 09:10:35;;;;;;;12.90;8.68;;;;;;;17.25;31.77;99850.50;5085250;28;20052;-68
2022/03/28 09:13:06;;;;;;;10.80;7.95;;;;;;;17.36;31.73;99850.56;5085372;28;20219;-68
2022/03/28 09:15:48;;;;;;;11.05;8.63;;;;;;;17.57;31.04;99835.53;5084569;28;20056;-68
2022/03/28 09:18:23;;;;;;;10.95;8.52;;;;;;;17.71;31.56;99837.19;5085602;28;20288;-68
2022/03/28 09:21:00;;;;;;;9.98;8.00;;;;;;;17.81;31.26;99834.66;5085635;28;20059;-68
2022/03/28 09:23:37;;;;;;;11.82;8.43;;;;;;;17.78;30.64;99834.88;5085547;28;20048;-68
2022/03/28 09:26:20;;;;;;;12.90;8.57;;;;;;;17.82;31.33;99826.50;5087750;28;20036;-68
2022/03/28 09:28:56;;;;;;;11.35;8.35;;;;;;;17.82;30.65;99780.91;5089771;28;20098;-69
2022/03/28 09:31:31;;;;;;;12.02;9.25;;;;;;;18.25;30.87;99834.69;5071907;28;20055;-68
2022/03/28 09:34:07;;;;;;;12.95;9.25;;;;;;;18.18;30.58;99771.78;5089338;28;20242;-68
2022/03/28 09:36:49;;;;;;;13.05;8.23;;;;;;;18.59;30.43;99807.88;5089622;28;20044;-68
2022/03/28 09:39:22;;;;;;;11.77;9.82;;;;;;;18.72;30.71;99807.72;5089137;28;20051;-68
2022/03/28 09:42:00;;;;;;;11.13;8.93;;;;;;;18.87;29.96;99791.22;5089148;28;20048;-68
2022/03/28 09:44:36;;;;;;;11.40;8.75;;;;;;;18.76;30.16;99756.34;5089344;28;20098;-68
2022/03/28 09:47:10;;;;;;;12.48;8.75;;;;;;;19.08;30.73;99793.09;5071532;28;20040;-69
2022/03/28 09:49:44;;;;;;;14.70;10.05;;;;;;;19.22;30.29;99787.41;5089030;28;20059;-68
2022/03/28 09:52:18;;;;;;;11.57;8.38;;;;;;;19.16;31.00;99786.09;5089398;28;20043;-68
2022/03/28 09:54:52;;;;;;;10.05;8.43;;;;;;;19.11;31.10;99782.09;5089002;28;20040;-68
2022/03/28 09:57:26;;;;;;;12.48;10.00;;;;;;;18.74;31.29;99747.56;5088915;28;20086;-68
2022/03/28 10:00:12;;;;;;;13.52;8.55;;;;;;;18.74;30.75;99739.50;5088795;28;20037;-68
2022/03/28 10:02:45;;;;;;;10.93;7.97;;;;;;;19.27;31.53;99765.53;5088422;28;20098;-69
2022/03/28 10:05:18;;;;;;;12.17;10.83;;;;;;;19.08;30.74;99726.78;5088676;28;20040;-68
2022/03/28 10:07:51;;;;;;;12.48;9.73;;;;;;;19.30;31.06;99762.59;5088713;28;20098;-67
2022/03/28 10:10:24;;;;;;;12.73;9.65;;;;;;;19.38;31.02;99760.94;5070968;28;20044;-68
2022/03/28 10:12:56;;;;;;;15.60;8.75;;;;;;;19.22;31.20;99710.34;5088299;28;20181;-68
2022/03/28 10:15:31;;;;;;;12.77;9.40;;;;;;;19.54;31.31;99742.56;5070956;28;20049;-68
2022/03/28 10:17:59;;;;;;;12.70;8.95;;;;;;;19.73;31.22;99735.59;5088124;28;20275;-68
2022/03/28 10:20:29;;;;;;;19.00;9.75;;;;;;;19.31;31.14;99667.53;5071212;28;20041;-68
2022/03/28 10:23:01;;;;;;;13.48;9.88;;;;;;;19.77;31.17;99737.88;5071124;28;20037;-68
2022/03/28 10:25:30;;;;;;;15.63;8.88;;;;;;;19.83;31.01;99733.81;5088567;28;20036;-68
2022/03/28 10:28:01;;;;;;;10.07;8.63;;;;;;;19.81;31.30;99735.81;5054925;28;20350;-68
2022/03/28 10:30:33;;;;;;;13.30;9.82;;;;;;;19.54;31.39;99704.91;5088233;28;20063;-66
2022/03/28 10:33:11;;;;;;;11.85;7.78;;;;;;;20.07;31.34;99718.22;5070730;28;20239;-66
2022/03/28 10:35:57;;;;;;;14.88;11.00;;;;;;;19.94;30.60;99685.31;5087910;28;20286;-66
2022/03/28 10:38:30;;;;;;;16.85;9.10;;;;;;;20.02;31.30;99674.72;5087226;28;20040;-65
2022/03/28 10:41:03;;;;;;;11.23;8.40;;;;;;;20.42;30.99;99711.53;5087725;28;20090;-66
2022/03/28 10:43:38;;;;;;;24.20;17.10;;;;;;;20.44;31.16;99698.78;5087583;28;20138;-66
2022/03/28 10:46:13;;;;;;;12.20;8.07;;;;;;;20.37;31.73;99705.72;5087462;28;20083;-66
2022/03/28 10:48:48;;;;;;;9.40;8.38;;;;;;;20.33;31.09;99696.22;5087891;28;20041;-65
2022/03/28 10:51:24;;;;;;;10.55;8.52;;;;;;;20.26;31.76;99698.63;5087766;28;20292;-65
2022/03/28 10:53:58;;;;;;;10.50;9.30;;;;;;;20.29;31.74;99689.41;5070156;28;20086;-66
2022/03/28 10:56:34;;;;;;;19.35;11.68;;;;;;;20.48;31.65;99681.38;5087793;28;20051;-66
2022/03/28 10:59:08;;;;;;;10.27;8.45;;;;;;;20.74;31.40;99679.00;5087542;28;20082;-66
2022/03/28 11:01:44;;;;;;;16.35;9.43;;;;;;;20.47;31.63;99671.59;5087608;28;20048;-66
2022/03/28 11:04:20;;;;;;;9.68;8.18;;;;;;;20.49;31.50;99673.16;5087217;28;20056;-66
2022/03/28 11:07:03;;;;;;;12.50;9.27;;;;;;;20.50;31.47;99628.25;5087310;28;20051;-65
2022/03/28 11:09:44;;;;;;;10.73;8.40;;;;;;;20.81;30.95;99654.03;5087222;28;20289;-65
2022/03/28 11:12:19;;;;;;;12.38;8.15;;;;;;;20.94;31.21;99647.50;5087174;28;20244;-66
2022/03/28 11:14:58;;;;;;;12.45;9.23;;;;;;;21.06;30.77;99635.59;5086860;28;20059;-66
2022/03/28 11:17:33;;;;;;;11.43;9.07;;;;;;;21.17;30.42;99631.91;5069577;28;20044;-65
2022/03/28 11:20:14;;;;;;;9.93;7.75;;;;;;;20.54;30.66;99519.28;5087506;28;20067;-65
2022/03/28 11:22:50;;;;;;;10.32;8.25;;;;;;;19.97;31.15;99477.91;5087473;28;20048;-65
2022/03/28 11:25:47;;;;;;;10.13;8.05;;;;;;;20.79;30.59;99591.38;5087842;28;20040;-65
2022/03/28 11:28:24;;;;;;;11.32;8.55;;;;;;;20.97;30.99;99598.72;5067532;28;20064;-65
2022/03/28 11:31:00;;;;;;;12.13;8.82;;;;;;;20.81;30.99;99572.38;5088504;28;20090;-65
2022/03/28 11:33:40;;;;;;;14.23;8.30;;;;;;;20.72;30.67;99517.53;5088914;28;20044;-65
2022/03/28 11:36:13;;;;;;;9.20;7.50;;;;;;;21.39;31.05;99589.28;5089383;28;20036;-65
2022/03/28 11:38:48;;;;;;;11.47;8.47;;;;;;;21.49;30.58;99596.47;5071469;28;20124;-65
2022/03/28 11:41:22;;;;;;;10.73;8.68;;;;;;;19.93;30.72;99352.78;5087164;28;20399;-64
2022/03/28 11:43:57;;;;;;;11.05;9.02;;;;;;;21.50;30.76;99576.59;5087541;28;20045;-65
2022/03/28 11:46:32;;;;;;;12.13;9.80;;;;;;;20.64;30.46;99438.47;5088676;28;20040;-65
2022/03/28 11:49:07;;;;;;;21.45;10.07;;;;;;;21.27;30.61;99563.50;5087126;28;20103;-65
2022/03/28 11:51:43;;;;;;;14.23;9.52;;;;;;;21.25;30.69;99554.69;5086706;28;20089;-65
2022/03/28 11:54:17;;;;;;;12.20;10.10;;;;;;;20.98;30.89;99550.09;5086310;28;20082;-65
2022/03/28 11:59:51;;;;;;;10.80;8.95;;;;;;;20.92;31.04;99529.13;5064772;28;19955;-66